• Join FlightAware (Why Join?)
  • Login
  • US Flag 
07:41AM EDT


 

Airport Tracker/Info


-or-


 

Live Flight TrackerFlight Track Log ✈ DAL6115 ✈ 17-Apr-2013 ✈ KJFK - KROC

Flight Track Log - Related Links

Times and Time Zones

All times are in EDT time to prevent confusion due to time zone crossing. See the DAL6115 flight status page for this flight to view local times or setup timezone preferences in your user account.

Time Position Orientation Groundspeed Altitude Reporting Facility
EDT Latitude Longitude Course Direction KTS MPH feet Rate Location/Type
09:36AM 40.6500 -73.7667 316° Northwest 158 182 1,700  Level New York TRACON
09:37AM 40.6500 -73.6833 90° East 209 241 4,500 2,940 Climbing New York TRACON
09:38AM 40.6500 -73.6000 90° East 222 255 7,600 2,820 Climbing New York TRACON
09:39AM 40.8842 -74.1234 315° West  Level FlightAware Approximate
09:39AM 40.6833 -73.5500 49° Northeast 238 274 10,300  Level New York TRACON
09:40AM 40.9508 -74.2105 316° Northwest  Level FlightAware Approximate
09:40AM 40.7500 -73.5500 360° North 227 261 11,900  Level New York TRACON
09:41AM 41.0180 -74.2969 316° Northwest  Level FlightAware Approximate
09:41AM 40.8500 -73.5833 346° North 312 359 13,100  Level New York TRACON
09:42AM 40.9333 -73.6000 351° North 352 405 14,200 1,200 Climbing New York TRACON
09:43AM 41.0167 -73.6167 351° North 366 421 15,400 1,200 Climbing New York TRACON
09:44AM 41.0833 -73.7500 304° West 362 417 16,600 780 Climbing New York TRACON
09:45AM 41.1000 -73.8500 283° West 361 415 17,000 120 Climbing New York TRACON
09:46AM 41.1331 -74.0356 283° West 374 430 17,000 360 Level New York Center
09:47AM 41.1564 -74.1744 283° West 364 419 18,000 1,080 Climbing New York Center
09:48AM 41.1797 -74.2997 284° West 358 412 19,200 1,320 Climbing New York Center
09:49AM 41.2028 -74.4306 283° West 358 412 20,700 1,320 Climbing New York Center
09:50AM 41.2278 -74.5642 284° West 364 419 21,900 600 Climbing New York Center
09:51AM 41.2886 -74.6781 305° West 363 418 22,000  Climbing New York Center
09:52AM 41.3497 -74.7783 309° West 387 445 22,000  Level New York Center
09:53AM 41.4167 -74.8903 309° West 392 451 22,000  Level New York Center
09:54AM 41.4836 -74.9994 309° West 392 451 22,000  Level New York Center
09:55AM 41.5506 -75.1092 309° West 386 444 22,000  Level New York Center
09:56AM 41.5981 -75.2342 297° West 386 444 22,000  Level New York Center
09:57AM 41.6344 -75.3669 290° West 381 438 22,000  Level New York Center
09:58AM 41.6708 -75.5000 290° West 381 438 22,000  Level New York Center
09:59AM 41.7094 -75.6306 292° West 381 438 22,000  Level New York Center
10:00AM 41.7456 -75.7611 290° West 376 433 22,000  Level New York Center
10:01AM 41.7872 -75.9061 291° West 376 433 22,000  Level New York Center
10:02AM 41.8253 -76.0372 291° West 376 433 22,000  Level New York Center
10:03AM 41.8933 -76.1456 310° West 381 438 22,000  Level New York Center
10:04AM 41.9697 -76.2494 315° West 381 438 22,000  Level New York Center
10:06AM 42.0972 -76.4214 315° West 385 443 22,000  Level Cleveland Center
10:07AM 42.1739 -76.5203 316° Northwest 385 443 22,000  Level Cleveland Center
10:08AM 42.2483 -76.6222 315° West 385 443 22,000 -360 Level Cleveland Center
10:09AM 42.3225 -76.7214 315° West 385 443 21,300 -1,320 Descending Cleveland Center
10:10AM 42.3947 -76.8211 314° West 380 437 19,400 -1,860 Descending Cleveland Center
10:11AM 42.4622 -76.9128 315° West 368 423 17,600 -1,740 Descending Cleveland Center
10:12AM 42.5297 -77.0047 315° West 355 409 16,000 -780 Descending Cleveland Center
10:13AM 42.6119 -77.1017 319° Northwest 332 382 15,900 -420 Descending Cleveland Center
10:14AM 42.6744 -77.1686 322° Northwest 338 389 15,200 -1,020 Descending Cleveland Center
10:15AM 42.7475 -77.2411 324° Northwest 333 383 14,100 -1,080 Descending Cleveland Center
10:16AM 42.8306 -77.3019 332° Northwest 333 383 13,100 -1,080 Descending Cleveland Center
10:17AM 42.9133 -77.3600 333° Northwest 333 383 12,000 -1,320 Descending Cleveland Center
10:18AM 42.9919 -77.4097 335° Northwest 333 383 10,500 -1,560 Descending Cleveland Center
10:19AM 43.0536 -77.4550 332° Northwest 293 337 9,000 -1,920 Descending Cleveland Center
10:20AM 43.1164 -77.4603 356° North 228 262 6,700 -2,280 Descending Cleveland Center
10:21AM 43.1764 -77.4486 North 223 257 4,500 -1,740 Descending Cleveland Center
10:22AM 43.1997 -77.5444 288° West 232 267 3,200 -1,200 Descending Cleveland Center
10:23AM 43.1850 -77.6164 254° West 197 227 2,200 -1,140 Descending Cleveland Center
10:24AM 43.1425 -77.6611 218° Southwest 133 153 1,000 -1,140 Descending Cleveland Center